Hauptseite
METAR-TAF:

METAR-TAF

Flughäfen :

Flughafen Kiel

Kiel, Deutschland

Breite: 54-23N, Länge: 010-10E, Höhe: 31 m

Beobachtung

Neuester Wetterbericht von vor 42 Minuten, um 17:50 UTC
Wind 7 kt aus West/Nordwest
Temperatur 16°C
Luftfeuchtigkeit 77%
Luftdruck 1015 hPa
Sichtweite 10 km oder mehr

METAR: EDHK 231750Z AUTO 29007KT 9999 // FEW044/// SCT070/// 16/12 Q1015

Zeit: 20:32 (18:32 UTC)

Prognose

Neuester Wetterbericht von vor 4 Stunden und 32 Minuten, um 14:00 UTC
Gültige Prognose vom 23 um 15 UTC bis 23 um 19 UTC
Wind 10 kt aus West
Sichtweite 10 km oder mehr
Leicht bewölkt in der Höhe von 2500 ft
Übergehend zu
vom 23 um 17 UTC bis 23 um 19 UTC
Wind 4 kt aus West

TAF: EDHK 231400Z 2315/2319 28010KT 9999 FEW025 BECMG 2317/2319 28004KT

Wetterbeobachtungen und Prognosen von mehr als 4000 Flughäfen (METAR und TAF Bericht).

Die verfügbaren Stationen werden durch gelbe und rote Markierungen auf der Karte dargestellt.

Führen Sie die Maus auf sie, um den Namen der Station zu sehen.

Darauf klicken, um die Beobachtung von Wetterbeobachtungen und Prognosen zu sehen.

Um die Karte zu ändern : klicken Sie auf den grünen Tasten mit einem schwarzen Kreuz Zum Vergrößern, auf den grünen Button mit einem Gedankenstrich zu verkleinern, oder auf die grünen Pfeile für benachbarte Karten.


METAR-TAF: